Time;durP1;ratioP1;P1;durP2;ratioP2;P2;SDS_P1;SDS_P2;PMS_P1;PMS_P2;Temp;Humidity;BMP_temperature;BMP_pressure;BME280_temperature;BME280_humidity;BME280_pressure;Samples;Min_cycle;Max_cycle;Signal;HPM_P1;HPM_P2
2021/10/04 00:01:03;;;;;;;4.43;4.22;;;14.00;69.10;;;;;;5032304;28;20412;-83
2021/10/04 00:03:29;;;;;;;4.50;4.30;;;14.00;69.20;;;;;;5033696;28;20052;-83
2021/10/04 00:05:55;;;;;;;4.40;4.20;;;14.00;69.20;;;;;;5033826;28;20021;-82
2021/10/04 00:08:21;;;;;;;4.32;4.13;;;14.00;69.30;;;;;;5031652;28;20044;-82
2021/10/04 00:10:47;;;;;;;4.70;4.40;;;13.90;69.20;;;;;;5032564;28;20025;-82
2021/10/04 00:13:13;;;;;;;4.03;3.83;;;14.00;69.40;;;;;;5032328;28;20407;-83
2021/10/04 00:15:39;;;;;;;4.10;3.90;;;14.00;69.40;;;;;;5033365;28;20037;-83
2021/10/04 00:18:05;;;;;;;4.25;4.05;;;13.90;69.40;;;;;;5033878;28;20396;-83
2021/10/04 00:20:31;;;;;;;4.05;3.85;;;13.90;69.40;;;;;;5032576;28;20041;-82
2021/10/04 00:22:58;;;;;;;4.30;4.10;;;13.90;69.50;;;;;;5030907;28;20029;-82
2021/10/04 00:25:24;;;;;;;4.10;3.90;;;13.90;69.60;;;;;;5015404;28;20030;-83
2021/10/04 00:27:50;;;;;;;4.20;4.00;;;13.90;69.70;;;;;;5033009;28;20037;-83
2021/10/04 00:30:16;;;;;;;4.20;4.00;;;13.90;69.70;;;;;;5030929;28;20026;-83
2021/10/04 00:32:44;;;;;;;4.28;4.07;;;13.80;69.70;;;;;;5033080;28;20396;-83
2021/10/04 00:35:12;;;;;;;3.90;3.70;;;13.80;69.80;;;;;;4999118;28;20048;-82
2021/10/04 00:37:38;;;;;;;3.80;3.60;;;13.80;69.90;;;;;;5032430;28;20037;-83
2021/10/04 00:40:06;;;;;;;3.90;3.70;;;13.80;69.90;;;;;;5032946;28;20036;-82
2021/10/04 00:42:32;;;;;;;4.47;4.07;;;13.80;70.00;;;;;;5015460;28;20064;-82
2021/10/04 00:44:58;;;;;;;3.90;3.70;;;13.80;70.00;;;;;;5033171;28;20040;-83
2021/10/04 00:47:24;;;;;;;4.30;4.10;;;13.70;70.00;;;;;;5031904;28;20044;-83
2021/10/04 00:49:50;;;;;;;4.13;3.92;;;13.70;70.10;;;;;;5031054;28;20464;-82
2021/10/04 00:52:16;;;;;;;3.95;3.75;;;13.70;70.10;;;;;;5031619;28;20040;-82
2021/10/04 00:54:42;;;;;;;4.45;4.05;;;13.70;70.10;;;;;;5031106;28;20053;-82
2021/10/04 00:57:08;;;;;;;3.90;3.70;;;13.70;70.20;;;;;;5030477;28;20056;-83
2021/10/04 00:59:34;;;;;;;4.32;4.03;;;13.70;70.20;;;;;;5030474;28;20044;-83
2021/10/04 01:02:00;;;;;;;3.90;3.70;;;13.70;70.20;;;;;;5031386;28;20040;-82
2021/10/04 01:04:27;;;;;;;3.67;3.47;;;13.70;70.30;;;;;;5031380;28;20036;-82
2021/10/04 01:06:54;;;;;;;3.78;3.58;;;13.70;70.20;;;;;;5031640;28;20037;-83
2021/10/04 01:09:20;;;;;;;4.25;4.05;;;13.70;70.30;;;;;;5032565;28;20416;-82
2021/10/04 01:11:46;;;;;;;3.70;3.50;;;13.70;70.30;;;;;;5031807;28;20025;-82
2021/10/04 01:14:12;;;;;;;3.72;3.53;;;13.70;70.30;;;;;;5014518;28;20040;-82
2021/10/04 01:16:38;;;;;;;3.80;3.60;;;13.70;70.30;;;;;;5031550;28;20369;-83
2021/10/04 01:19:04;;;;;;;3.83;3.63;;;13.70;70.40;;;;;;5030604;28;20037;-83
2021/10/04 01:21:30;;;;;;;4.30;4.10;;;13.70;70.40;;;;;;5031786;28;20030;-83
2021/10/04 01:23:56;;;;;;;3.45;3.35;;;13.70;70.50;;;;;;5030050;28;20495;-83
2021/10/04 01:26:24;;;;;;;3.65;3.45;;;13.70;70.50;;;;;;5030878;28;20056;-83
2021/10/04 01:28:50;;;;;;;3.70;3.50;;;13.70;70.50;;;;;;5026678;28;20052;-83
2021/10/04 01:31:22;;;;;;;3.83;3.63;;;13.70;70.60;;;;;;5031278;28;20051;-83
2021/10/04 01:33:52;;;;;;;3.50;3.38;;;13.70;70.60;;;;;;5014602;28;20504;-83
2021/10/04 01:36:20;;;;;;;4.20;4.00;;;13.60;70.70;;;;;;5030398;28;20365;-82
2021/10/04 01:38:46;;;;;;;3.40;3.30;;;13.70;70.80;;;;;;5029956;28;20056;-82
2021/10/04 01:41:12;;;;;;;3.42;3.33;;;13.60;70.70;;;;;;5031255;28;20037;-82
2021/10/04 01:43:39;;;;;;;3.33;3.22;;;13.60;70.80;;;;;;5029955;28;20030;-83
2021/10/04 01:46:05;;;;;;;3.22;3.13;;;13.60;70.90;;;;;;5030881;28;20414;-83
2021/10/04 01:48:31;;;;;;;3.30;3.20;;;13.60;70.90;;;;;;5031821;28;20033;-82
2021/10/04 01:50:57;;;;;;;3.20;3.10;;;13.60;70.90;;;;;;5029911;28;20025;-82
2021/10/04 01:53:23;;;;;;;3.25;3.15;;;13.60;71.00;;;;;;5031237;28;20480;-82
2021/10/04 01:55:49;;;;;;;3.20;3.10;;;13.60;71.00;;;;;;5031239;28;20037;-82
2021/10/04 01:58:15;;;;;;;3.85;3.65;;;13.60;71.10;;;;;;5030318;28;20032;-82
2021/10/04 02:00:42;;;;;;;3.47;3.28;;;13.60;71.10;;;;;;5030273;28;20858;-82
2021/10/04 02:03:08;;;;;;;3.20;3.10;;;13.60;71.10;;;;;;5029572;28;20041;-83
2021/10/04 02:05:34;;;;;;;3.20;3.10;;;13.60;71.20;;;;;;5025409;28;20049;-83
2021/10/04 02:08:00;;;;;;;3.25;3.15;;;13.60;71.20;;;;;;5006324;28;20030;-82
2021/10/04 02:10:32;;;;;;;3.30;3.20;;;13.60;71.20;;;;;;5027735;28;20049;-82
2021/10/04 02:13:01;;;;;;;3.20;3.10;;;13.50;71.20;;;;;;5022591;28;20025;-83
2021/10/04 02:15:27;;;;;;;3.20;3.10;;;13.60;71.30;;;;;;5028267;28;20076;-83
2021/10/04 02:17:53;;;;;;;3.70;3.40;;;13.50;71.30;;;;;;5009072;28;20721;-82
2021/10/04 02:20:21;;;;;;;3.20;3.10;;;13.50;71.30;;;;;;5025398;28;20025;-82
2021/10/04 02:22:48;;;;;;;3.20;3.10;;;13.50;71.40;;;;;;5023062;28;20041;-82
2021/10/04 02:25:14;;;;;;;3.28;3.17;;;13.60;71.50;;;;;;5027472;28;20066;-82
2021/10/04 02:27:41;;;;;;;3.10;3.00;;;13.50;71.50;;;;;;5027828;28;20033;-83
2021/10/04 02:30:09;;;;;;;3.22;3.13;;;13.50;71.50;;;;;;5049624;28;20025;-81
2021/10/04 02:32:35;;;;;;;3.38;3.28;;;13.50;71.50;;;;;;5050542;28;20025;-82
2021/10/04 02:35:01;;;;;;;3.40;3.30;;;13.50;71.60;;;;;;5042183;28;20049;-82
2021/10/04 02:37:27;;;;;;;3.60;3.40;;;13.50;71.70;;;;;;5030479;28;20033;-83
2021/10/04 02:39:54;;;;;;;3.40;3.30;;;13.50;71.70;;;;;;5030817;28;20049;-83
2021/10/04 02:42:20;;;;;;;3.17;3.08;;;13.50;71.70;;;;;;5031707;28;20380;-83
2021/10/04 02:44:46;;;;;;;3.38;3.28;;;13.50;71.70;;;;;;5030250;28;20033;-83
2021/10/04 02:47:12;;;;;;;3.40;3.20;;;13.40;71.70;;;;;;5030373;28;20377;-83
2021/10/04 02:49:38;;;;;;;3.10;3.00;;;13.40;71.70;;;;;;5030054;28;20053;-82
2021/10/04 02:52:05;;;;;;;2.90;2.80;;;13.40;71.80;;;;;;5030035;28;20029;-83
2021/10/04 02:54:31;;;;;;;3.05;2.95;;;13.40;71.90;;;;;;5030926;28;20492;-82
2021/10/04 02:56:57;;;;;;;3.30;3.20;;;13.40;71.90;;;;;;5033301;28;20049;-82
2021/10/04 02:59:23;;;;;;;3.30;3.20;;;13.40;71.90;;;;;;5033329;28;20048;-82
2021/10/04 03:01:49;;;;;;;3.25;3.15;;;13.40;72.00;;;;;;5033440;28;20041;-82
2021/10/04 03:04:15;;;;;;;3.58;3.38;;;13.40;72.00;;;;;;5033676;28;20038;-83
2021/10/04 03:06:42;;;;;;;3.17;3.08;;;13.40;72.00;;;;;;5034761;28;20092;-82
2021/10/04 03:09:08;;;;;;;3.60;3.40;;;13.40;72.10;;;;;;5032213;28;20428;-82
2021/10/04 03:11:34;;;;;;;3.00;2.90;;;13.40;72.10;;;;;;5032674;28;20044;-82
2021/10/04 03:14:00;;;;;;;3.20;3.10;;;13.40;72.10;;;;;;5033425;28;20392;-82
2021/10/04 03:16:27;;;;;;;3.17;3.08;;;13.40;72.10;;;;;;5032287;28;20037;-83
2021/10/04 03:18:53;;;;;;;3.10;3.00;;;13.40;72.20;;;;;;5034076;28;20030;-82
2021/10/04 03:21:19;;;;;;;3.10;3.00;;;13.30;72.20;;;;;;5029796;28;20037;-83
2021/10/04 03:23:45;;;;;;;3.10;3.00;;;13.40;72.30;;;;;;5034236;28;20041;-83
2021/10/04 03:26:11;;;;;;;3.10;3.00;;;13.30;72.30;;;;;;5033110;28;20509;-82
2021/10/04 03:28:37;;;;;;;3.10;3.00;;;13.30;72.30;;;;;;5032518;28;20048;-84
2021/10/04 03:31:04;;;;;;;3.20;3.10;;;13.30;72.40;;;;;;5031978;28;20033;-83
2021/10/04 03:33:30;;;;;;;4.05;3.30;;;13.20;72.40;;;;;;5033947;28;20034;-84
2021/10/04 03:35:56;;;;;;;6.97;3.15;;;13.20;72.50;;;;;;5033923;28;20040;-83
2021/10/04 03:38:22;;;;;;;3.10;3.00;;;13.10;72.60;;;;;;5033620;28;20045;-83
2021/10/04 03:40:48;;;;;;;2.92;2.83;;;13.10;72.70;;;;;;5034152;28;20037;-83
2021/10/04 03:43:14;;;;;;;3.10;3.00;;;13.10;72.70;;;;;;5033473;28;20040;-83
2021/10/04 03:45:40;;;;;;;3.13;3.03;;;13.10;72.90;;;;;;5033304;28;20048;-84
2021/10/04 03:48:06;;;;;;;3.13;3.03;;;13.00;72.90;;;;;;5033424;28;20511;-83
2021/10/04 03:50:32;;;;;;;3.30;3.20;;;13.00;72.80;;;;;;5032427;28;20033;-84
2021/10/04 03:52:58;;;;;;;3.28;3.17;;;13.00;72.90;;;;;;5032974;28;20041;-84
2021/10/04 03:55:25;;;;;;;3.08;2.97;;;13.00;72.90;;;;;;5032260;28;20045;-83
2021/10/04 03:57:51;;;;;;;3.20;3.10;;;13.00;72.90;;;;;;5030368;28;20025;-83
2021/10/04 04:00:19;;;;;;;3.30;3.20;;;13.10;72.90;;;;;;5032885;28;20072;-83
2021/10/04 04:02:45;;;;;;;3.05;2.95;;;13.10;72.90;;;;;;5031915;28;20021;-84
2021/10/04 04:05:11;;;;;;;3.20;3.10;;;13.10;72.90;;;;;;5031833;28;20029;-83
2021/10/04 04:07:37;;;;;;;3.03;2.92;;;13.10;72.90;;;;;;5032386;28;20041;-84
2021/10/04 04:10:04;;;;;;;3.17;3.08;;;13.10;72.90;;;;;;5033572;28;20029;-84
2021/10/04 04:12:31;;;;;;;3.10;3.00;;;13.10;72.90;;;;;;5033691;28;20030;-84
2021/10/04 04:14:57;;;;;;;3.55;3.40;;;13.10;72.90;;;;;;5031945;28;20389;-83
2021/10/04 04:17:23;;;;;;;3.75;3.40;;;13.20;73.00;;;;;;5032616;28;20029;-83
2021/10/04 04:19:49;;;;;;;3.40;3.22;;;13.10;72.90;;;;;;5033136;28;20394;-83
2021/10/04 04:22:15;;;;;;;3.45;3.25;;;13.20;73.00;;;;;;5032059;28;20488;-83
2021/10/04 04:24:42;;;;;;;3.05;2.95;;;13.10;72.90;;;;;;5033122;28;20041;-83
2021/10/04 04:27:08;;;;;;;2.95;2.85;;;13.20;73.00;;;;;;5032068;28;20037;-83
2021/10/04 04:29:36;;;;;;;3.20;3.10;;;13.20;73.00;;;;;;5032612;28;20030;-84
2021/10/04 04:32:04;;;;;;;3.28;3.17;;;13.10;72.90;;;;;;5014607;28;20030;-82
2021/10/04 04:34:30;;;;;;;3.40;3.30;;;13.20;73.00;;;;;;5032253;28;21282;-83
2021/10/04 04:36:56;;;;;;;3.22;3.13;;;13.20;73.00;;;;;;5031408;28;20041;-83
2021/10/04 04:39:22;;;;;;;3.15;3.05;;;13.20;73.00;;;;;;5054005;28;20049;-83
2021/10/04 04:41:48;;;;;;;3.33;3.22;;;13.10;73.00;;;;;;5032699;28;20036;-83
2021/10/04 04:44:14;;;;;;;3.25;3.15;;;13.20;73.10;;;;;;5032055;28;20037;-82
2021/10/04 04:46:40;;;;;;;3.22;3.13;;;13.20;73.00;;;;;;5032345;28;20036;-82
2021/10/04 04:49:06;;;;;;;3.53;3.38;;;13.20;73.10;;;;;;5032819;28;20029;-86
2021/10/04 04:51:33;;;;;;;3.38;3.25;;;13.20;73.10;;;;;;5026316;28;20025;-87
2021/10/04 04:53:59;;;;;;;3.42;3.30;;;13.20;73.20;;;;;;5032945;28;20048;-86
2021/10/04 04:56:25;;;;;;;3.47;3.33;;;13.20;73.20;;;;;;5031475;28;20033;-86
2021/10/04 04:58:51;;;;;;;3.08;2.97;;;13.20;73.20;;;;;;5031589;28;20021;-87
2021/10/04 05:01:17;;;;;;;3.25;3.15;;;13.20;73.20;;;;;;5014269;28;20041;-84
2021/10/04 05:03:43;;;;;;;3.20;3.10;;;13.20;73.20;;;;;;5030028;28;20045;-85
2021/10/04 05:06:09;;;;;;;3.35;3.25;;;13.20;73.20;;;;;;5032599;28;20030;-85
2021/10/04 05:08:35;;;;;;;4.10;3.90;;;13.20;74.00;;;;;;5032274;28;20033;-87
2021/10/04 05:11:01;;;;;;;3.45;3.35;;;13.20;73.30;;;;;;5031358;28;20032;-87
2021/10/04 05:13:27;;;;;;;3.65;3.45;;;13.20;73.30;;;;;;5031769;28;20026;-86
2021/10/04 05:15:53;;;;;;;3.45;3.35;;;13.20;73.40;;;;;;5031308;28;20396;-85
2021/10/04 05:18:19;;;;;;;3.75;3.55;;;13.20;73.40;;;;;;5031802;28;20040;-87
2021/10/04 05:20:46;;;;;;;3.75;3.55;;;13.20;73.50;;;;;;5025506;28;20380;-86
2021/10/04 05:23:12;;;;;;;3.42;3.25;;;13.20;73.50;;;;;;5030859;28;20029;-84
2021/10/04 05:25:39;;;;;;;3.45;3.30;;;13.20;73.60;;;;;;5028925;28;20025;-85
2021/10/04 05:28:05;;;;;;;4.70;3.35;;;13.20;73.60;;;;;;5031613;28;20496;-85
2021/10/04 05:30:32;;;;;;;3.60;3.40;;;13.20;73.60;;;;;;5028477;28;20041;-83
2021/10/04 05:32:58;;;;;;;3.20;3.10;;;13.20;73.60;;;;;;5030407;28;20048;-83
2021/10/04 05:35:24;;;;;;;3.30;3.20;;;13.20;73.60;;;;;;5031845;28;20064;-83
2021/10/04 05:37:50;;;;;;;3.60;3.42;;;13.20;73.60;;;;;;5031784;28;20468;-85
2021/10/04 05:40:16;;;;;;;3.33;3.22;;;13.20;73.70;;;;;;5030037;28;20044;-85
2021/10/04 05:42:43;;;;;;;3.50;3.38;;;13.20;73.70;;;;;;5030473;28;20477;-84
2021/10/04 05:45:10;;;;;;;3.28;3.17;;;13.10;73.70;;;;;;5029702;28;20034;-83
2021/10/04 05:47:36;;;;;;;3.40;3.30;;;13.10;73.70;;;;;;5030188;28;20041;-83
2021/10/04 05:50:03;;;;;;;3.70;3.50;;;13.20;73.90;;;;;;5028855;28;20029;-84
2021/10/04 05:52:29;;;;;;;3.67;3.50;;;13.20;73.90;;;;;;5031700;28;20040;-86
2021/10/04 05:54:55;;;;;;;3.78;3.58;;;13.10;73.80;;;;;;5028930;28;20060;-86
2021/10/04 05:57:21;;;;;;;3.35;3.25;;;13.10;73.80;;;;;;5013573;28;20041;-81
2021/10/04 05:59:48;;;;;;;3.50;3.38;;;13.10;73.90;;;;;;5031386;28;20500;-84
2021/10/04 06:02:14;;;;;;;3.42;3.30;;;13.10;73.90;;;;;;5028156;28;20045;-86
2021/10/04 06:04:40;;;;;;;3.30;3.20;;;13.10;74.00;;;;;;5026654;28;20036;-87
2021/10/04 06:07:06;;;;;;;3.63;3.47;;;13.10;74.00;;;;;;5031613;28;20033;-83
2021/10/04 06:09:32;;;;;;;3.30;3.20;;;13.10;74.90;;;;;;5031796;28;20416;-87
2021/10/04 06:11:58;;;;;;;3.25;3.15;;;13.10;74.10;;;;;;5026092;28;20034;-89
2021/10/04 06:14:24;;;;;;;3.67;3.47;;;13.10;74.10;;;;;;5030843;28;20380;-88
2021/10/04 06:16:52;;;;;;;3.17;3.08;;;13.10;74.10;;;;;;5030699;28;20037;-82
2021/10/04 06:19:18;;;;;;;3.25;3.10;;;13.10;74.10;;;;;;5029381;28;20595;-83
2021/10/04 06:21:44;;;;;;;3.03;2.92;;;13.10;74.10;;;;;;5031420;28;22227;-83
2021/10/04 06:24:10;;;;;;;6.35;3.70;;;13.10;74.20;;;;;;5022878;28;20041;-85
2021/10/04 06:26:36;;;;;;;3.08;2.97;;;13.10;74.10;;;;;;5030627;28;20033;-82
2021/10/04 06:29:03;;;;;;;3.20;3.10;;;13.10;74.10;;;;;;5012458;28;20048;-84
2021/10/04 06:31:29;;;;;;;3.33;3.22;;;13.20;74.20;;;;;;5021520;28;20034;-83
2021/10/04 06:33:55;;;;;;;3.42;3.22;;;13.20;74.10;;;;;;5028364;28;20511;-84
2021/10/04 06:36:21;;;;;;;3.05;2.95;;;13.20;74.10;;;;;;5034258;28;20037;-83
2021/10/04 06:38:47;;;;;;;5.97;3.17;;;13.20;74.10;;;;;;5031002;28;20037;-83
2021/10/04 06:41:13;;;;;;;3.95;3.75;;;13.30;74.10;;;;;;5030662;28;20033;-80
2021/10/04 06:43:39;;;;;;;3.05;2.95;;;13.30;74.10;;;;;;5030968;28;20025;-82
2021/10/04 06:46:08;;;;;;;3.15;3.05;;;13.30;74.00;;;;;;5036907;28;20040;-83
2021/10/04 06:48:35;;;;;;;3.50;3.28;;;13.30;74.10;;;;;;5029240;28;20036;-84
2021/10/04 06:51:01;;;;;;;3.15;3.05;;;13.30;74.10;;;;;;5041574;28;20055;-85
2021/10/04 06:53:27;;;;;;;3.28;3.17;;;13.30;74.00;;;;;;5010659;28;20048;-83
2021/10/04 06:55:53;;;;;;;3.20;3.10;;;13.30;74.00;;;;;;5032489;28;20400;-84
2021/10/04 06:58:20;;;;;;;3.05;2.95;;;13.40;74.10;;;;;;5063143;28;20029;-83
2021/10/04 07:00:46;;;;;;;3.20;3.10;;;13.50;74.10;;;;;;5038580;28;20044;-84
2021/10/04 07:03:12;;;;;;;3.10;3.00;;;13.50;74.10;;;;;;5031737;28;20481;-83
2021/10/04 07:05:39;;;;;;;3.30;3.17;;;13.50;74.00;;;;;;5063167;28;20037;-83
2021/10/04 07:08:05;;;;;;;3.15;3.05;;;13.60;74.00;;;;;;5031275;28;20018;-85
2021/10/04 07:10:31;;;;;;;2.85;2.75;;;13.80;73.70;;;;;;5062556;28;20476;-85
2021/10/04 07:12:59;;;;;;;2.65;2.55;;;14.20;73.10;;;;;;5062972;28;20064;-84
2021/10/04 07:15:25;;;;;;;4.03;3.00;;;14.60;72.30;;;;;;5030759;28;20049;-85
2021/10/04 07:17:51;;;;;;;3.08;2.97;;;15.00;71.30;;;;;;5029983;28;20400;-84
2021/10/04 07:20:17;;;;;;;3.13;3.03;;;15.40;70.60;;;;;;5062944;28;20029;-86
2021/10/04 07:22:44;;;;;;;3.97;3.78;;;15.70;70.00;;;;;;5063095;28;20030;-83
2021/10/04 07:25:11;;;;;;;3.40;3.30;;;15.90;69.60;;;;;;5045556;28;20476;-84
2021/10/04 07:27:37;;;;;;;4.15;3.95;;;16.20;69.20;;;;;;5030447;28;20396;-83
2021/10/04 07:30:04;;;;;;;4.47;4.28;;;16.40;68.90;;;;;;5026969;28;20469;-83
2021/10/04 07:32:30;;;;;;;4.70;4.50;;;16.60;68.50;;;;;;5030007;28;20032;-84
2021/10/04 07:34:56;;;;;;;4.60;4.40;;;16.90;68.20;;;;;;5047255;28;20037;-84
2021/10/04 07:37:22;;;;;;;4.95;4.75;;;17.10;68.00;;;;;;5042030;28;20492;-84
2021/10/04 07:39:48;;;;;;;5.93;5.63;;;17.30;67.70;;;;;;5030253;28;20487;-85
2021/10/04 07:42:15;;;;;;;6.15;5.85;;;17.50;67.40;;;;;;5016368;28;20049;-85
2021/10/04 07:44:41;;;;;;;6.43;6.13;;;17.80;67.20;;;;;;5041359;28;20056;-83
2021/10/04 07:47:07;;;;;;;7.03;6.72;;;18.00;67.00;;;;;;5039010;28;20045;-84
2021/10/04 07:49:33;;;;;;;7.43;7.13;;;18.10;66.80;;;;;;5033819;28;20045;-82
2021/10/04 07:52:00;;;;;;;7.32;7.03;;;18.30;66.60;;;;;;5066428;28;20029;-84
2021/10/04 07:54:27;;;;;;;8.13;7.72;;;18.40;66.50;;;;;;5041495;28;20098;-83
2021/10/04 07:56:53;;;;;;;7.88;7.47;;;18.60;66.40;;;;;;5016829;28;20049;-84
2021/10/04 07:59:19;;;;;;;8.65;8.25;;;18.70;66.30;;;;;;5034095;28;20025;-85
2021/10/04 08:01:45;;;;;;;9.40;9.00;;;18.70;66.30;;;;;;5048254;28;20057;-84
2021/10/04 08:04:12;;;;;;;11.10;10.60;;;18.90;66.20;;;;;;5041984;28;20038;-83
2021/10/04 08:06:38;;;;;;;10.40;9.90;;;19.00;66.00;;;;;;5033282;28;20049;-85
2021/10/04 08:09:04;;;;;;;10.70;10.20;;;19.20;65.80;;;;;;5033974;28;20526;-86
2021/10/04 08:11:30;;;;;;;12.07;11.52;;;19.40;65.70;;;;;;5033499;28;20034;-83
2021/10/04 08:13:56;;;;;;;12.40;11.80;;;19.40;65.60;;;;;;5065941;28;20038;-83
2021/10/04 08:16:22;;;;;;;12.35;11.75;;;19.50;65.70;;;;;;5033505;28;20056;-83
2021/10/04 08:18:50;;;;;;;12.38;11.77;;;19.60;65.60;;;;;;5033620;28;20045;-83
2021/10/04 08:21:16;;;;;;;11.65;11.15;;;19.80;65.50;;;;;;5017033;28;20476;-85
2021/10/04 08:23:43;;;;;;;12.38;11.77;;;20.00;65.20;;;;;;5033365;28;20037;-85
2021/10/04 08:26:10;;;;;;;13.43;12.82;;;20.10;65.00;;;;;;5065202;28;20036;-85
2021/10/04 08:28:36;;;;;;;12.93;12.32;;;20.10;64.90;;;;;;5033473;28;20033;-85
2021/10/04 08:31:02;;;;;;;11.60;11.07;;;20.20;65.00;;;;;;5036968;28;20411;-81
2021/10/04 08:33:28;;;;;;;13.07;12.48;;;20.20;65.20;;;;;;5062118;28;20034;-81
2021/10/04 08:35:55;;;;;;;12.95;12.25;;;20.10;65.30;;;;;;5031666;28;20041;-82
2021/10/04 08:38:22;;;;;;;12.18;11.57;;;20.10;65.60;;;;;;5033589;28;20032;-81
2021/10/04 08:40:48;;;;;;;12.88;12.27;;;20.20;65.50;;;;;;5033386;28;20088;-82
2021/10/04 08:43:14;;;;;;;11.65;11.15;;;20.20;65.50;;;;;;5032046;28;20025;-82
2021/10/04 08:45:41;;;;;;;9.93;9.45;;;20.30;65.50;;;;;;5031060;28;20097;-82
2021/10/04 08:48:07;;;;;;;10.48;9.98;;;20.30;65.50;;;;;;5032612;28;20030;-82
2021/10/04 08:50:33;;;;;;;10.38;9.88;;;20.30;65.50;;;;;;5029780;28;20030;-82
2021/10/04 08:53:00;;;;;;;10.68;10.18;;;20.40;65.40;;;;;;5015103;28;20028;-82
2021/10/04 08:55:27;;;;;;;11.00;10.50;;;20.40;65.40;;;;;;5030559;28;20044;-82
2021/10/04 08:57:53;;;;;;;10.80;10.30;;;20.40;65.50;;;;;;5063214;28;20021;-82
2021/10/04 09:00:19;;;;;;;10.80;10.30;;;20.40;65.60;;;;;;5026877;28;20042;-84
2021/10/04 09:02:48;;;;;;;10.80;10.30;;;20.40;65.70;;;;;;5031704;28;20036;-84
2021/10/04 09:05:27;;;;;;;10.88;10.38;;;20.40;65.80;;;;;;5026774;28;20483;-87
2021/10/04 09:07:59;;;;;;;10.40;9.90;;;20.40;65.90;;;;;;5019192;28;20018;-84
2021/10/04 09:10:31;;;;;;;10.82;10.32;;;20.40;65.90;;;;;;5027948;28;20029;-87
2021/10/04 09:13:01;;;;;;;11.63;10.63;;;20.50;66.00;;;;;;5064672;28;20468;-87
2021/10/04 09:15:40;;;;;;;11.02;10.45;;;20.50;65.90;;;;;;5063622;28;20484;-87
2021/10/04 09:18:15;;;;;;;11.23;10.73;;;20.50;66.00;;;;;;5026914;28;20060;-86
2021/10/04 09:21:01;;;;;;;11.02;10.43;;;20.40;66.00;;;;;;5028976;28;20034;-86
2021/10/04 09:23:27;;;;;;;10.80;10.30;;;20.30;66.20;;;;;;5026559;28;20033;-86
2021/10/04 09:25:53;;;;;;;11.32;10.73;;;20.40;66.20;;;;;;5032237;28;20392;-84
2021/10/04 09:28:29;;;;;;;9.85;9.40;;;20.30;66.20;;;;;;5062152;28;20018;-85
2021/10/04 09:31:16;;;;;;;10.15;9.65;;;20.40;66.20;;;;;;5016952;28;20045;-89
2021/10/04 09:34:00;;;;;;;10.45;9.95;;;20.40;66.20;;;;;;5031153;28;20041;-88
2021/10/04 09:36:54;;;;;;;10.35;9.85;;;20.50;66.20;;;;;;5027257;28;20037;-90
2021/10/04 09:39:27;;;;;;;10.35;9.85;;;20.40;66.00;;;;;;5040658;28;20488;-81
2021/10/04 09:42:05;;;;;;;10.43;9.93;;;20.50;66.10;;;;;;5063884;28;20060;-81
2021/10/04 09:44:51;;;;;;;10.82;10.30;;;20.60;66.00;;;;;;5030705;28;20025;-84
2021/10/04 09:47:29;;;;;;;10.02;9.52;;;20.60;65.80;;;;;;5031650;28;20465;-84
2021/10/04 09:50:08;;;;;;;9.95;9.52;;;20.60;65.70;;;;;;5026309;28;20026;-85
2021/10/04 09:52:53;;;;;;;10.77;10.27;;;20.70;65.70;;;;;;5031504;28;20052;-87
2021/10/04 09:55:33;;;;;;;10.00;9.52;;;20.80;65.50;;;;;;5047063;28;20033;-86
2021/10/04 09:58:16;;;;;;;10.50;10.00;;;20.80;65.30;;;;;;5025625;28;20042;-86
2021/10/04 10:00:47;;;;;;;11.45;10.95;;;20.90;65.20;;;;;;5063094;28;20522;-84
2021/10/04 10:03:14;;;;;;;11.13;10.63;;;20.90;65.10;;;;;;5029152;28;20033;-87
2021/10/04 10:05:43;;;;;;;12.18;11.57;;;20.80;65.20;;;;;;5028903;28;20101;-88
2021/10/04 10:08:09;;;;;;;11.80;11.30;;;20.70;65.20;;;;;;5030196;28;20033;-88
2021/10/04 10:10:37;;;;;;;11.35;10.77;;;20.80;65.30;;;;;;5030094;28;20407;-84
2021/10/04 10:13:07;;;;;;;11.63;11.13;;;20.70;65.20;;;;;;5045683;28;20033;-90
2021/10/04 10:15:33;;;;;;;12.13;11.07;;;20.60;65.30;;;;;;5031244;28;20034;-89
2021/10/04 10:18:32;;;;;;;11.07;10.57;;;20.60;65.20;;;;;;5013174;28;20029;-88
2021/10/04 10:20:59;;;;;;;10.38;9.88;;;20.70;65.10;;;;;;5042350;28;20029;-87
2021/10/04 10:23:47;;;;;;;9.60;9.20;;;20.70;64.90;;;;;;5029847;28;20021;-86
2021/10/04 10:26:29;;;;;;;11.18;10.68;;;20.80;64.90;;;;;;5026153;28;20060;-86
2021/10/04 10:29:13;;;;;;;10.30;9.80;;;20.90;64.70;;;;;;5023949;28;20073;-86
2021/10/04 10:32:07;;;;;;;11.68;11.18;;;20.80;64.50;;;;;;5029833;28;20488;-86
2021/10/04 10:34:34;;;;;;;11.07;10.57;;;20.70;64.70;;;;;;5027567;28;20039;-86
2021/10/04 10:37:10;;;;;;;11.25;10.75;;;20.50;65.00;;;;;;5030108;28;20033;-84
2021/10/04 10:39:47;;;;;;;11.00;10.50;;;20.50;65.10;;;;;;5014298;28;20044;-84
2021/10/04 10:42:18;;;;;;;11.10;10.60;;;20.60;64.90;;;;;;5029011;28;20029;-77
2021/10/04 10:44:56;;;;;;;11.48;10.98;;;20.60;64.60;;;;;;5027448;28;20032;-78
2021/10/04 10:47:37;;;;;;;10.40;9.90;;;20.80;64.30;;;;;;5029128;28;20044;-77
2021/10/04 10:50:09;;;;;;;11.00;10.50;;;20.90;64.10;;;;;;5028601;28;20033;-78
2021/10/04 10:52:38;;;;;;;10.93;10.43;;;21.10;63.80;;;;;;5029116;28;20029;-77
2021/10/04 10:55:20;;;;;;;11.35;10.85;;;21.20;63.50;;;;;;5029379;28;20028;-77
2021/10/04 10:57:52;;;;;;;11.38;10.88;;;21.30;63.20;;;;;;5043914;28;20056;-77
2021/10/04 11:00:25;;;;;;;12.55;11.95;;;21.30;63.00;;;;;;5030494;28;20436;-77
2021/10/04 11:03:12;;;;;;;11.80;11.30;;;21.30;63.80;;;;;;5054930;28;20476;-84
2021/10/04 11:05:38;;;;;;;11.88;11.38;;;21.20;63.00;;;;;;5028687;28;20029;-85
2021/10/04 11:08:22;;;;;;;12.20;11.63;;;21.10;63.10;;;;;;5029120;28;20030;-85
2021/10/04 11:10:48;;;;;;;11.23;10.73;;;21.00;63.10;;;;;;5029240;28;20369;-84
2021/10/04 11:13:42;;;;;;;11.60;11.10;;;21.00;63.20;;;;;;5030727;28;20056;-84
2021/10/04 11:16:08;;;;;;;12.15;11.55;;;20.90;63.10;;;;;;5020577;28;20041;-84
2021/10/04 11:18:45;;;;;;;12.63;11.88;;;20.90;62.90;;;;;;5033686;28;20038;-85
2021/10/04 11:21:15;;;;;;;10.75;10.25;;;20.90;62.90;;;;;;5031227;28;20373;-84
2021/10/04 11:23:50;;;;;;;10.63;10.13;;;20.80;62.80;;;;;;5033151;28;20381;-85
2021/10/04 11:26:19;;;;;;;10.85;10.35;;;20.80;62.80;;;;;;5032953;28;20484;-85
2021/10/04 11:28:55;;;;;;;11.00;10.50;;;20.80;62.90;;;;;;5033092;28;20040;-84
2021/10/04 11:31:22;;;;;;;11.48;10.93;;;20.80;62.60;;;;;;5031307;28;20105;-85
2021/10/04 11:33:53;;;;;;;10.40;9.90;;;20.70;62.60;;;;;;5064959;28;20017;-85
2021/10/04 11:36:23;;;;;;;;;;;20.70;62.60;;;;;;5030781;28;20045;-84
2021/10/04 11:38:53;;;;;;;10.82;10.32;;;20.60;62.60;;;;;;5065932;28;19920;-85
2021/10/04 11:41:21;;;;;;;11.33;10.83;;;20.60;62.80;;;;;;5033998;28;20029;-85
2021/10/04 11:43:47;;;;;;;10.43;9.93;;;20.40;62.90;;;;;;5031073;28;20025;-85
2021/10/04 11:46:19;;;;;;;11.95;11.20;;;20.40;63.00;;;;;;5033032;28;20543;-85
2021/10/04 11:48:45;;;;;;;10.95;10.45;;;20.30;63.10;;;;;;5031915;28;20048;-84
2021/10/04 11:51:18;;;;;;;10.38;9.88;;;20.20;63.20;;;;;;5033479;28;20030;-84
2021/10/04 11:53:44;;;;;;;10.38;9.88;;;20.20;63.40;;;;;;5047880;28;20048;-84
2021/10/04 11:56:12;;;;;;;10.43;9.93;;;20.10;63.50;;;;;;5048323;28;20041;-84
2021/10/04 11:59:10;;;;;;;10.55;10.05;;;20.00;63.50;;;;;;5032327;28;20064;-84
2021/10/04 12:01:39;;;;;;;10.60;10.10;;;20.10;63.60;;;;;;4990753;28;20049;-85
2021/10/04 12:04:13;;;;;;;10.55;10.05;;;20.10;63.50;;;;;;4991670;28;20034;-84
2021/10/04 12:06:43;;;;;;;10.63;10.13;;;20.10;63.40;;;;;;4990874;28;20084;-84
2021/10/04 12:09:23;;;;;;;10.70;10.20;;;20.20;63.30;;;;;;5000735;28;20044;-84
2021/10/04 12:11:53;;;;;;;10.77;10.27;;;20.20;63.20;;;;;;4989502;28;20049;-76
2021/10/04 12:14:21;;;;;;;10.57;10.07;;;20.20;63.10;;;;;;4985252;28;20062;-77
2021/10/04 12:16:47;;;;;;;10.50;10.00;;;20.30;63.00;;;;;;4989820;28;20046;-77
2021/10/04 12:19:14;;;;;;;10.60;10.10;;;20.40;62.80;;;;;;4974319;28;20057;-77
2021/10/04 12:21:41;;;;;;;11.20;10.70;;;20.50;62.60;;;;;;4973090;28;20046;-77
2021/10/04 12:24:20;;;;;;;11.05;10.55;;;20.60;62.40;;;;;;4991647;28;20042;-77
2021/10/04 12:26:52;;;;;;;10.70;10.20;;;20.70;62.20;;;;;;4990723;28;20057;-76
2021/10/04 12:29:36;;;;;;;11.50;11.00;;;20.80;62.00;;;;;;4989620;28;20034;-76
2021/10/04 12:32:26;;;;;;;10.90;10.40;;;20.90;61.90;;;;;;4986489;28;20397;-76
2021/10/04 12:35:16;;;;;;;11.00;10.50;;;21.00;61.80;;;;;;4989894;28;20035;-75
2021/10/04 12:37:57;;;;;;;10.82;10.32;;;21.00;61.70;;;;;;5014530;28;20044;-77
2021/10/04 12:40:56;;;;;;;;;;;21.10;61.70;;;;;;5032438;28;20040;-78
2021/10/04 12:43:22;;;;;;;10.90;10.40;;;21.10;61.60;;;;;;5021785;28;19916;-77
2021/10/04 12:45:52;;;;;;;11.10;10.60;;;21.20;61.40;;;;;;5026843;28;20037;-77
2021/10/04 12:48:19;;;;;;;11.40;10.90;;;21.20;61.30;;;;;;5025030;28;20036;-77